Time;durP1;ratioP1;P1;durP2;ratioP2;P2;SDS_P1;SDS_P2;PMS_P1;PMS_P2;Temp;Humidity;BMP_temperature;BMP_pressure;BME280_temperature;BME280_humidity;BME280_pressure;Samples;Min_cycle;Max_cycle;Signal;HPM_P1;HPM_P2
2022/03/08 00:00:31;;;;;;;28.10;21.03;;;;;;;;;;4980890;28;20224;-80
2022/03/08 00:02:57;;;;;;;31.87;21.13;;;;;;;;;;4980879;28;20185;-80
2022/03/08 00:05:24;;;;;;;30.17;20.53;;;;;;;;;;4980933;28;20213;-81
2022/03/08 00:07:50;;;;;;;28.13;20.80;;;;;;;;;;4980556;28;20184;-80
2022/03/08 00:10:17;;;;;;;28.47;20.77;;;;;;;;;;4980148;28;20286;-80
2022/03/08 00:12:43;;;;;;;30.33;20.70;;;;;;;;;;4962680;28;20169;-80
2022/03/08 00:15:10;;;;;;;30.77;21.57;;;;;;;;;;4980216;28;20211;-80
2022/03/08 00:17:37;;;;;;;30.43;21.43;;;;;;;;;;4979898;28;20196;-81
2022/03/08 00:20:05;;;;;;;31.67;22.00;;;;;;;;;;4979814;28;20185;-81
2022/03/08 00:22:31;;;;;;;31.80;21.67;;;;;;;;;;4980295;28;20603;-81
2022/03/08 00:24:57;;;;;;;29.43;21.00;;;;;;;;;;4979784;28;20228;-80
2022/03/08 00:27:23;;;;;;;30.03;21.77;;;;;;;;;;4980118;28;20185;-80
2022/03/08 00:29:49;;;;;;;31.43;21.70;;;;;;;;;;4980340;28;20287;-80
2022/03/08 00:32:15;;;;;;;29.43;20.13;;;;;;;;;;4979943;28;20204;-81
2022/03/08 00:34:41;;;;;;;28.57;20.50;;;;;;;;;;4979867;28;20204;-80
2022/03/08 00:37:07;;;;;;;27.87;19.90;;;;;;;;;;4980470;28;20180;-81
2022/03/08 00:39:33;;;;;;;28.67;20.07;;;;;;;;;;4979910;28;20559;-80
2022/03/08 00:41:59;;;;;;;29.53;20.50;;;;;;;;;;4962265;28;20184;-80
2022/03/08 00:44:25;;;;;;;28.67;20.43;;;;;;;;;;4979637;28;20204;-80
2022/03/08 00:46:51;;;;;;;28.47;19.57;;;;;;;;;;4963749;28;20272;-81
2022/03/08 00:49:17;;;;;;;29.20;19.83;;;;;;;;;;4961812;28;20262;-80
2022/03/08 00:51:43;;;;;;;30.80;20.43;;;;;;;;;;4979692;28;20191;-80
2022/03/08 00:54:09;;;;;;;34.30;20.70;;;;;;;;;;4979475;28;20184;-81
2022/03/08 00:56:35;;;;;;;28.57;19.20;;;;;;;;;;4979534;28;20267;-80
2022/03/08 00:59:01;;;;;;;30.97;21.37;;;;;;;;;;4979469;28;20710;-80
2022/03/08 01:01:27;;;;;;;31.07;20.17;;;;;;;;;;4961990;28;20222;-80
2022/03/08 01:03:53;;;;;;;27.00;19.50;;;;;;;;;;4979342;28;20191;-80
2022/03/08 01:06:19;;;;;;;30.97;20.80;;;;;;;;;;4962349;28;20180;-80
2022/03/08 01:08:45;;;;;;;31.57;21.00;;;;;;;;;;4961642;28;20186;-80
2022/03/08 01:11:14;;;;;;;28.33;19.80;;;;;;;;;;4979018;28;20291;-80
2022/03/08 01:13:40;;;;;;;33.20;21.13;;;;;;;;;;4979588;28;20264;-80
2022/03/08 01:16:06;;;;;;;26.57;19.40;;;;;;;;;;4961929;28;20570;-80
2022/03/08 01:18:32;;;;;;;28.00;20.37;;;;;;;;;;4961795;28;20188;-80
2022/03/08 01:20:58;;;;;;;29.73;20.07;;;;;;;;;;4961587;28;20180;-80
2022/03/08 01:23:24;;;;;;;27.47;19.90;;;;;;;;;;4979364;28;20188;-81
2022/03/08 01:25:50;;;;;;;29.83;19.77;;;;;;;;;;4961773;28;20303;-81
2022/03/08 01:28:16;;;;;;;29.23;20.30;;;;;;;;;;4978965;28;20219;-80
2022/03/08 01:30:42;;;;;;;29.17;19.90;;;;;;;;;;4961371;28;20212;-80
2022/03/08 01:33:08;;;;;;;30.57;19.93;;;;;;;;;;4979302;28;20184;-81
2022/03/08 01:35:34;;;;;;;29.70;20.07;;;;;;;;;;4978832;28;20586;-81
2022/03/08 01:38:00;;;;;;;26.93;18.77;;;;;;;;;;4977981;28;20188;-80
2022/03/08 01:40:26;;;;;;;31.37;20.87;;;;;;;;;;4962016;28;20185;-80
2022/03/08 01:42:53;;;;;;;29.87;20.30;;;;;;;;;;4979264;28;20191;-80
2022/03/08 01:45:21;;;;;;;27.23;19.57;;;;;;;;;;4978656;28;20236;-80
2022/03/08 01:47:47;;;;;;;27.90;20.60;;;;;;;;;;4978644;28;20208;-81
2022/03/08 01:50:13;;;;;;;28.90;20.10;;;;;;;;;;4961336;28;20221;-80
2022/03/08 01:52:40;;;;;;;30.60;20.33;;;;;;;;;;4978504;28;20185;-80
2022/03/08 01:55:07;;;;;;;29.33;20.83;;;;;;;;;;4978910;28;20200;-80
2022/03/08 01:57:33;;;;;;;28.30;19.00;;;;;;;;;;4979300;28;20184;-80
2022/03/08 01:59:59;;;;;;;32.40;21.17;;;;;;;;;;4978583;28;20555;-80
2022/03/08 02:02:25;;;;;;;29.33;20.10;;;;;;;;;;4961268;28;20257;-80
2022/03/08 02:04:51;;;;;;;28.33;18.93;;;;;;;;;;4978595;28;20207;-80
2022/03/08 02:07:17;;;;;;;29.50;20.20;;;;;;;;;;4978681;28;20196;-81
2022/03/08 02:09:43;;;;;;;28.13;19.87;;;;;;;;;;4961201;28;20708;-80
2022/03/08 02:12:10;;;;;;;32.40;20.13;;;;;;;;;;4978535;28;20181;-80
2022/03/08 02:14:36;;;;;;;30.33;20.37;;;;;;;;;;4978586;28;20193;-80
2022/03/08 02:17:02;;;;;;;26.23;19.30;;;;;;;;;;4978480;28;20185;-80
2022/03/08 02:19:28;;;;;;;28.27;19.67;;;;;;;;;;4961096;28;20180;-80
2022/03/08 02:21:55;;;;;;;28.30;19.93;;;;;;;;;;4960395;28;20196;-80
2022/03/08 02:24:21;;;;;;;30.93;20.70;;;;;;;;;;4960503;28;20667;-80
2022/03/08 02:26:47;;;;;;;28.93;19.97;;;;;;;;;;4978182;28;20648;-81
2022/03/08 02:29:13;;;;;;;26.20;19.83;;;;;;;;;;4960494;28;20221;-80
2022/03/08 02:31:39;;;;;;;26.77;19.60;;;;;;;;;;4960193;28;20264;-79
2022/03/08 02:34:05;;;;;;;29.50;20.73;;;;;;;;;;4976563;28;20181;-79
2022/03/08 02:36:31;;;;;;;28.83;19.73;;;;;;;;;;4976595;28;20186;-79
2022/03/08 02:38:57;;;;;;;29.17;20.23;;;;;;;;;;4958719;28;20172;-79
2022/03/08 02:41:24;;;;;;;27.67;19.80;;;;;;;;;;4976354;28;20190;-79
2022/03/08 02:43:50;;;;;;;28.10;19.77;;;;;;;;;;4976112;28;20552;-79
2022/03/08 02:46:16;;;;;;;29.93;19.77;;;;;;;;;;4976041;28;20181;-79
2022/03/08 02:48:42;;;;;;;27.50;19.07;;;;;;;;;;4976350;28;20647;-79
2022/03/08 02:51:08;;;;;;;24.27;18.93;;;;;;;;;;4976150;28;20230;-79
2022/03/08 02:53:34;;;;;;;26.17;19.70;;;;;;;;;;4976382;28;20184;-80
2022/03/08 02:56:00;;;;;;;27.27;20.10;;;;;;;;;;4958574;28;20192;-79
2022/03/08 02:58:26;;;;;;;27.93;20.13;;;;;;;;;;4975611;28;20191;-80
2022/03/08 03:00:52;;;;;;;28.17;20.20;;;;;;;;;;4975152;28;20707;-79
2022/03/08 03:03:18;;;;;;;26.57;19.10;;;;;;;;;;4975782;28;20189;-79
2022/03/08 03:05:45;;;;;;;31.17;19.87;;;;;;;;;;4977143;28;20203;-80
2022/03/08 03:08:11;;;;;;;29.23;19.47;;;;;;;;;;4974328;28;20646;-79
2022/03/08 03:10:37;;;;;;;31.13;20.23;;;;;;;;;;4974406;28;20204;-79
2022/03/08 03:13:03;;;;;;;29.53;20.07;;;;;;;;;;4976220;28;20302;-79
2022/03/08 03:15:30;;;;;;;28.37;17.87;;;;;;;;;;4976176;28;20234;-79
2022/03/08 03:17:56;;;;;;;29.47;20.23;;;;;;;;;;4975601;28;20184;-80
2022/03/08 03:20:23;;;;;;;29.63;19.97;;;;;;;;;;4974639;28;20181;-79
2022/03/08 03:22:49;;;;;;;28.30;19.47;;;;;;;;;;4976098;28;20181;-79
2022/03/08 03:25:15;;;;;;;30.47;20.33;;;;;;;;;;4958367;28;20231;-79
2022/03/08 03:27:42;;;;;;;28.63;19.63;;;;;;;;;;4976046;28;20195;-79
2022/03/08 03:30:13;;;;;;;29.73;19.33;;;;;;;;;;4976112;28;20205;-79
2022/03/08 03:32:40;;;;;;;29.83;18.70;;;;;;;;;;4958651;28;20181;-79
2022/03/08 03:35:06;;;;;;;30.53;20.20;;;;;;;;;;4975835;28;20223;-80
2022/03/08 03:37:33;;;;;;;26.90;18.53;;;;;;;;;;4976069;28;20184;-79
2022/03/08 03:39:59;;;;;;;31.73;18.70;;;;;;;;;;4975210;28;20224;-79
2022/03/08 03:42:25;;;;;;;30.63;20.17;;;;;;;;;;4976007;28;20190;-79
2022/03/08 03:44:52;;;;;;;29.67;19.80;;;;;;;;;;4975733;28;20201;-79
2022/03/08 03:47:18;;;;;;;35.27;19.13;;;;;;;;;;4976445;28;20184;-79
2022/03/08 03:49:44;;;;;;;30.43;19.60;;;;;;;;;;4976256;28;20219;-79
2022/03/08 03:52:10;;;;;;;30.67;20.23;;;;;;;;;;4976377;28;20180;-80
2022/03/08 03:54:36;;;;;;;29.63;19.20;;;;;;;;;;4976234;28;20200;-79
2022/03/08 03:57:02;;;;;;;30.60;20.37;;;;;;;;;;4958527;28;20181;-80
2022/03/08 03:59:28;;;;;;;29.57;20.10;;;;;;;;;;4976276;28;20181;-79
2022/03/08 04:01:54;;;;;;;27.57;19.57;;;;;;;;;;4979075;28;20573;-79
2022/03/08 04:04:20;;;;;;;29.27;19.17;;;;;;;;;;4979380;28;20212;-79
2022/03/08 04:06:46;;;;;;;26.57;19.23;;;;;;;;;;4979033;28;20182;-79
2022/03/08 04:09:13;;;;;;;30.37;19.23;;;;;;;;;;4961858;28;20191;-79
2022/03/08 04:11:39;;;;;;;27.43;18.90;;;;;;;;;;4962045;28;20222;-80
2022/03/08 04:14:05;;;;;;;32.20;20.63;;;;;;;;;;4978849;28;20235;-79
2022/03/08 04:16:31;;;;;;;28.57;20.07;;;;;;;;;;4978871;28;20181;-79
2022/03/08 04:18:57;;;;;;;27.53;18.53;;;;;;;;;;4978652;28;20180;-79
2022/03/08 04:21:23;;;;;;;29.10;19.43;;;;;;;;;;4961474;28;20180;-79
2022/03/08 04:23:49;;;;;;;31.30;19.53;;;;;;;;;;4979081;28;20192;-79
2022/03/08 04:26:16;;;;;;;28.70;19.87;;;;;;;;;;4978376;28;20268;-79
2022/03/08 04:28:42;;;;;;;25.97;19.03;;;;;;;;;;4978836;28;20180;-79
2022/03/08 04:31:08;;;;;;;28.27;19.10;;;;;;;;;;4978561;28;20259;-80
2022/03/08 04:33:34;;;;;;;29.97;19.53;;;;;;;;;;4978796;28;20179;-79
2022/03/08 04:36:00;;;;;;;27.80;19.40;;;;;;;;;;4978770;28;20224;-79
2022/03/08 04:38:26;;;;;;;29.07;19.13;;;;;;;;;;4978615;28;20645;-79
2022/03/08 04:40:52;;;;;;;31.43;19.47;;;;;;;;;;4973012;28;20180;-79
2022/03/08 04:43:18;;;;;;;31.57;20.07;;;;;;;;;;4978379;28;20184;-79
2022/03/08 04:45:44;;;;;;;31.60;19.40;;;;;;;;;;4978105;28;20211;-79
2022/03/08 04:48:11;;;;;;;27.50;18.70;;;;;;;;;;4978481;28;20208;-79
2022/03/08 04:50:37;;;;;;;28.77;19.80;;;;;;;;;;4978412;28;20204;-79
2022/03/08 04:53:03;;;;;;;27.03;18.53;;;;;;;;;;4978135;28;20549;-79
2022/03/08 04:55:29;;;;;;;31.20;20.50;;;;;;;;;;4978139;28;20312;-79
2022/03/08 04:57:55;;;;;;;29.87;19.00;;;;;;;;;;4978004;28;20185;-79
2022/03/08 05:00:21;;;;;;;29.33;19.47;;;;;;;;;;4976402;28;20644;-80
2022/03/08 05:02:47;;;;;;;26.67;18.43;;;;;;;;;;4958760;28;20197;-79
2022/03/08 05:05:14;;;;;;;31.37;19.53;;;;;;;;;;4969225;28;20204;-80
2022/03/08 05:07:41;;;;;;;27.27;19.27;;;;;;;;;;4976145;28;20207;-80
2022/03/08 05:10:09;;;;;;;29.40;19.73;;;;;;;;;;4974829;28;20216;-80
2022/03/08 05:12:36;;;;;;;27.97;19.30;;;;;;;;;;4957827;28;20180;-80
2022/03/08 05:15:02;;;;;;;27.47;18.60;;;;;;;;;;4975975;28;20605;-80
2022/03/08 05:17:28;;;;;;;28.20;18.87;;;;;;;;;;4975046;28;20236;-77
2022/03/08 05:19:55;;;;;;;28.97;19.30;;;;;;;;;;4975896;28;20192;-80
2022/03/08 05:22:22;;;;;;;29.73;20.63;;;;;;;;;;4976271;28;20188;-79
2022/03/08 05:24:48;;;;;;;27.60;19.93;;;;;;;;;;4976802;28;20207;-80
2022/03/08 05:27:14;;;;;;;30.10;19.83;;;;;;;;;;4976744;28;20185;-79
2022/03/08 05:29:40;;;;;;;31.53;20.50;;;;;;;;;;4976836;28;20680;-79
2022/03/08 05:32:06;;;;;;;30.20;20.50;;;;;;;;;;4977632;28;20649;-79
2022/03/08 05:34:32;;;;;;;29.30;20.47;;;;;;;;;;4977003;28;20208;-79
2022/03/08 05:36:58;;;;;;;32.93;22.17;;;;;;;;;;4977383;28;20256;-79
2022/03/08 05:39:24;;;;;;;31.10;20.90;;;;;;;;;;4959542;28;20560;-79
2022/03/08 05:41:50;;;;;;;31.00;20.53;;;;;;;;;;4976964;28;20184;-79
2022/03/08 05:44:16;;;;;;;31.83;20.23;;;;;;;;;;4977112;28;20203;-79
2022/03/08 05:46:45;;;;;;;34.40;20.77;;;;;;;;;;4977236;28;20184;-79
2022/03/08 05:49:11;;;;;;;30.70;19.77;;;;;;;;;;4976798;28;20289;-78
2022/03/08 05:51:38;;;;;;;29.93;20.10;;;;;;;;;;4959785;28;20185;-79
2022/03/08 05:54:04;;;;;;;33.03;20.27;;;;;;;;;;4977344;28;20457;-79
2022/03/08 05:56:30;;;;;;;32.87;20.30;;;;;;;;;;4977383;28;20177;-79
2022/03/08 05:58:56;;;;;;;30.60;20.07;;;;;;;;;;4977164;28;20666;-79
2022/03/08 06:01:22;;;;;;;31.70;20.50;;;;;;;;;;4976644;28;20607;-79
2022/03/08 06:03:48;;;;;;;32.97;20.77;;;;;;;;;;4976853;28;20533;-80
2022/03/08 06:06:14;;;;;;;33.43;20.67;;;;;;;;;;4977143;28;20231;-79
2022/03/08 06:08:40;;;;;;;30.77;20.00;;;;;;;;;;4976656;28;20644;-79
2022/03/08 06:11:09;;;;;;;33.40;21.03;;;;;;;;;;4976713;28;20197;-79
2022/03/08 06:13:35;;;;;;;35.40;20.63;;;;;;;;;;4976891;28;20640;-79
2022/03/08 06:16:01;;;;;;;29.53;19.93;;;;;;;;;;4958142;28;20196;-79
2022/03/08 06:18:27;;;;;;;31.23;20.10;;;;;;;;;;4959305;28;20524;-79
2022/03/08 06:20:53;;;;;;;31.93;21.30;;;;;;;;;;4958970;28;20644;-79
2022/03/08 06:23:19;;;;;;;29.57;20.40;;;;;;;;;;4975675;28;20563;-79
2022/03/08 06:25:45;;;;;;;30.33;19.97;;;;;;;;;;4976013;28;20208;-79
2022/03/08 06:28:11;;;;;;;30.73;19.73;;;;;;;;;;4977190;28;20189;-80
2022/03/08 06:30:37;;;;;;;31.10;20.33;;;;;;;;;;4976955;28;20211;-80
2022/03/08 06:33:04;;;;;;;30.90;19.90;;;;;;;;;;4977057;28;20177;-80
2022/03/08 06:35:31;;;;;;;31.43;20.30;;;;;;;;;;4976336;28;20633;-79
2022/03/08 06:37:57;;;;;;;28.30;19.40;;;;;;;;;;4976283;28;20640;-80
2022/03/08 06:40:24;;;;;;;31.67;20.93;;;;;;;;;;4976716;28;20546;-80
2022/03/08 06:42:50;;;;;;;30.10;20.20;;;;;;;;;;4976925;28;20184;-80
2022/03/08 06:45:16;;;;;;;29.67;19.57;;;;;;;;;;4976367;28;20205;-79
2022/03/08 06:47:42;;;;;;;30.30;20.07;;;;;;;;;;4974436;28;20186;-81
2022/03/08 06:50:09;;;;;;;32.10;20.73;;;;;;;;;;4977836;28;20216;-80
2022/03/08 06:52:35;;;;;;;33.07;20.67;;;;;;;;;;4977645;28;20184;-80
2022/03/08 06:55:01;;;;;;;30.53;20.50;;;;;;;;;;4967915;28;20205;-80
2022/03/08 06:57:27;;;;;;;30.73;20.57;;;;;;;;;;4975482;28;20246;-80
2022/03/08 06:59:53;;;;;;;36.80;20.27;;;;;;;;;;4974457;28;20207;-80
2022/03/08 07:02:19;;;;;;;30.73;19.90;;;;;;;;;;4956164;28;20181;-81
2022/03/08 07:04:45;;;;;;;32.33;20.23;;;;;;;;;;4957916;28;20239;-80
2022/03/08 07:07:12;;;;;;;29.30;19.17;;;;;;;;;;4960175;28;20189;-81
2022/03/08 07:09:38;;;;;;;31.07;20.37;;;;;;;;;;4973619;28;20200;-79
2022/03/08 07:12:04;;;;;;;30.80;19.90;;;;;;;;;;4970651;28;20664;-80
2022/03/08 07:14:30;;;;;;;28.17;19.03;;;;;;;;;;4976314;28;20268;-79
2022/03/08 07:16:56;;;;;;;29.03;20.20;;;;;;;;;;4976494;28;20183;-80
2022/03/08 07:19:22;;;;;;;28.77;19.80;;;;;;;;;;4976592;28;20200;-79
2022/03/08 07:21:48;;;;;;;28.90;19.73;;;;;;;;;;4957635;28;20532;-80
2022/03/08 07:24:15;;;;;;;31.80;20.63;;;;;;;;;;4975243;28;20219;-80
2022/03/08 07:26:41;;;;;;;30.83;19.73;;;;;;;;;;4965030;28;20181;-80
2022/03/08 07:29:07;;;;;;;52.73;27.33;;;;;;;;;;4960384;28;20181;-80
2022/03/08 07:31:33;;;;;;;31.53;20.33;;;;;;;;;;4978433;28;20606;-81
2022/03/08 07:33:59;;;;;;;31.13;20.13;;;;;;;;;;4977499;28;20180;-80
2022/03/08 07:36:25;;;;;;;37.63;22.27;;;;;;;;;;4978550;28;20185;-81
2022/03/08 07:38:51;;;;;;;27.03;19.20;;;;;;;;;;4981125;28;20181;-81
2022/03/08 07:41:17;;;;;;;31.10;18.43;;;;;;;;;;4981057;28;20188;-80
2022/03/08 07:43:43;;;;;;;27.90;18.23;;;;;;;;;;4981076;28;20243;-81
2022/03/08 07:46:10;;;;;;;24.50;17.00;;;;;;;;;;4948167;28;20204;-80
2022/03/08 07:48:36;;;;;;;25.33;17.83;;;;;;;;;;4970902;28;20200;-80
2022/03/08 07:51:03;;;;;;;27.83;17.77;;;;;;;;;;4967240;28;20208;-80
2022/03/08 07:53:29;;;;;;;27.17;18.07;;;;;;;;;;4962695;28;20208;-80
2022/03/08 07:55:55;;;;;;;32.27;18.87;;;;;;;;;;4979822;28;20569;-80
2022/03/08 07:58:21;;;;;;;25.13;17.77;;;;;;;;;;4981005;28;20718;-80
2022/03/08 08:00:47;;;;;;;31.03;19.20;;;;;;;;;;4980409;28;20603;-80
2022/03/08 08:03:13;;;;;;;27.23;19.50;;;;;;;;;;4980715;28;20180;-80
2022/03/08 08:05:39;;;;;;;28.47;18.83;;;;;;;;;;4980011;28;20625;-80
2022/03/08 08:08:06;;;;;;;28.43;18.67;;;;;;;;;;4980037;28;20668;-80
2022/03/08 08:10:32;;;;;;;28.43;18.87;;;;;;;;;;4979936;28;20205;-80
2022/03/08 08:12:58;;;;;;;26.30;19.03;;;;;;;;;;4980135;28;20182;-80
2022/03/08 08:15:24;;;;;;;29.60;18.37;;;;;;;;;;4979442;28;20703;-79
2022/03/08 08:17:50;;;;;;;26.17;19.63;;;;;;;;;;4963073;28;20623;-80
2022/03/08 08:20:17;;;;;;;29.03;19.77;;;;;;;;;;4978979;28;20172;-79
2022/03/08 08:22:43;;;;;;;29.40;19.83;;;;;;;;;;4962494;28;20227;-80
2022/03/08 08:25:10;;;;;;;29.27;19.77;;;;;;;;;;4979969;28;20196;-80
2022/03/08 08:27:37;;;;;;;31.93;19.87;;;;;;;;;;4962452;28;20189;-80
2022/03/08 08:30:04;;;;;;;29.20;20.77;;;;;;;;;;4965912;28;20205;-80
2022/03/08 08:32:30;;;;;;;34.17;20.30;;;;;;;;;;4959599;28;20181;-79
2022/03/08 08:34:56;;;;;;;28.10;19.77;;;;;;;;;;4958298;28;20274;-79
2022/03/08 08:37:22;;;;;;;36.23;21.17;;;;;;;;;;4962982;28;20181;-80
2022/03/08 08:39:49;;;;;;;29.57;20.43;;;;;;;;;;4960480;28;20177;-79
2022/03/08 08:42:15;;;;;;;29.93;20.07;;;;;;;;;;4960704;28;20189;-80
2022/03/08 08:44:41;;;;;;;29.47;19.80;;;;;;;;;;4959678;28;20208;-79
2022/03/08 08:47:07;;;;;;;30.87;20.10;;;;;;;;;;4961789;28;20196;-80
2022/03/08 08:49:33;;;;;;;27.67;19.53;;;;;;;;;;4958972;28;20216;-80
2022/03/08 08:51:59;;;;;;;30.30;20.03;;;;;;;;;;4960568;28;20209;-81
2022/03/08 08:54:25;;;;;;;31.23;20.67;;;;;;;;;;4958452;28;20217;-80
2022/03/08 08:56:51;;;;;;;27.30;19.67;;;;;;;;;;4960851;28;20184;-80
2022/03/08 08:59:17;;;;;;;32.30;20.40;;;;;;;;;;4962496;28;20177;-81
2022/03/08 09:01:43;;;;;;;30.93;20.43;;;;;;;;;;4963395;28;20189;-81
2022/03/08 09:04:09;;;;;;;27.03;19.43;;;;;;;;;;4959714;28;20180;-80
2022/03/08 09:06:35;;;;;;;28.53;19.50;;;;;;;;;;4957164;28;20185;-80
2022/03/08 09:09:01;;;;;;;30.70;21.03;;;;;;;;;;4961351;28;20208;-81
2022/03/08 09:11:28;;;;;;;31.03;20.87;;;;;;;;;;4960084;28;20205;-80
2022/03/08 09:13:56;;;;;;;30.43;20.50;;;;;;;;;;4962180;28;20181;-80
2022/03/08 09:16:23;;;;;;;28.57;20.23;;;;;;;;;;4964325;28;20182;-80
2022/03/08 09:18:49;;;;;;;29.93;20.70;;;;;;;;;;4967986;28;20232;-80
2022/03/08 09:21:15;;;;;;;35.37;21.17;;;;;;;;;;4967451;28;20213;-79
2022/03/08 09:23:41;;;;;;;32.40;21.73;;;;;;;;;;4963945;28;20181;-80
2022/03/08 09:26:08;;;;;;;28.50;19.83;;;;;;;;;;4962159;28;20208;-80
2022/03/08 09:28:34;;;;;;;32.57;21.87;;;;;;;;;;4966331;28;20597;-82
2022/03/08 09:31:00;;;;;;;29.80;20.77;;;;;;;;;;4963363;28;20197;-81
2022/03/08 09:33:27;;;;;;;30.10;21.03;;;;;;;;;;4960964;28;20227;-80
2022/03/08 09:35:53;;;;;;;29.30;20.77;;;;;;;;;;4960151;28;20271;-81
2022/03/08 09:38:19;;;;;;;30.30;20.37;;;;;;;;;;4959518;28;20182;-81
2022/03/08 09:40:47;;;;;;;27.57;20.63;;;;;;;;;;4978892;28;20192;-81
2022/03/08 09:43:14;;;;;;;27.17;20.27;;;;;;;;;;4977271;28;20187;-80
2022/03/08 09:45:40;;;;;;;39.00;24.63;;;;;;;;;;4977977;28;20748;-80
2022/03/08 09:48:06;;;;;;;32.43;20.67;;;;;;;;;;4977209;28;20201;-79
2022/03/08 09:50:32;;;;;;;32.10;21.03;;;;;;;;;;4963984;28;20217;-80
2022/03/08 09:52:59;;;;;;;30.57;20.67;;;;;;;;;;4979323;28;20181;-80
2022/03/08 09:55:26;;;;;;;34.70;21.43;;;;;;;;;;4978708;28;20213;-81
2022/03/08 09:57:53;;;;;;;31.20;20.50;;;;;;;;;;4979282;28;20185;-80
2022/03/08 10:00:22;;;;;;;32.97;21.77;;;;;;;;;;4961461;28;20326;-81
2022/03/08 10:02:55;;;;;;;30.43;21.03;;;;;;;;;;4978806;28;20209;-80
2022/03/08 10:05:25;;;;;;;27.83;20.13;;;;;;;;;;4978570;28;20200;-81
2022/03/08 10:08:04;;;;;;;32.47;21.63;;;;;;;;;;4960353;28;20179;-82
2022/03/08 10:10:32;;;;;;;36.30;23.60;;;;;;;;;;4977730;28;20267;-81
2022/03/08 10:12:58;;;;;;;282.23;101.07;;;;;;;;;;4977909;28;20182;-82
2022/03/08 10:15:25;;;;;;;32.23;22.33;;;;;;;;;;4976259;28;20590;-81
2022/03/08 10:17:51;;;;;;;37.20;21.67;;;;;;;;;;4977199;28;20188;-81
2022/03/08 10:20:28;;;;;;;31.10;21.60;;;;;;;;;;4957965;28;20654;-81
2022/03/08 10:22:54;;;;;;;35.03;21.17;;;;;;;;;;4965410;28;20190;-82
2022/03/08 10:25:22;;;;;;;30.93;21.83;;;;;;;;;;4973988;28;20210;-84
2022/03/08 10:27:55;;;;;;;37.20;21.77;;;;;;;;;;4978984;28;20196;-81
2022/03/08 10:30:22;;;;;;;32.20;21.67;;;;;;;;;;4978514;28;20206;-82
2022/03/08 10:32:48;;;;;;;31.27;22.30;;;;;;;;;;4978901;28;20190;-82
2022/03/08 10:35:22;;;;;;;31.20;21.40;;;;;;;;;;4978426;28;20206;-82
2022/03/08 10:37:48;;;;;;;29.67;21.57;;;;;;;;;;4978221;28;20239;-82
2022/03/08 10:40:21;;;;;;;32.20;21.53;;;;;;;;;;4977681;28;20244;-82
2022/03/08 10:42:57;;;;;;;28.60;21.07;;;;;;;;;;4961152;28;20194;-82
2022/03/08 10:45:26;;;;;;;28.90;21.00;;;;;;;;;;4977683;28;20221;-83
2022/03/08 10:47:53;;;;;;;31.43;20.83;;;;;;;;;;4976710;28;20186;-84
2022/03/08 10:50:20;;;;;;;30.13;20.50;;;;;;;;;;4978258;28;20203;-83
2022/03/08 10:52:49;;;;;;;29.53;20.37;;;;;;;;;;4977589;28;20183;-83
2022/03/08 10:55:16;;;;;;;30.90;20.60;;;;;;;;;;4976735;28;20206;-81
2022/03/08 10:57:43;;;;;;;28.23;20.67;;;;;;;;;;4976474;28;20241;-81
2022/03/08 11:00:12;;;;;;;29.73;21.77;;;;;;;;;;4975671;28;20565;-83
2022/03/08 11:02:52;;;;;;;28.80;20.30;;;;;;;;;;4956524;28;20188;-81
2022/03/08 11:05:19;;;;;;;30.40;20.23;;;;;;;;;;4969640;28;20205;-82
2022/03/08 11:07:46;;;;;;;25.70;20.03;;;;;;;;;;4973334;28;20191;-83
2022/03/08 11:10:13;;;;;;;28.83;20.33;;;;;;;;;;4957859;28;20200;-83
2022/03/08 11:12:40;;;;;;;28.23;21.20;;;;;;;;;;4967372;28;20183;-82
2022/03/08 11:15:15;;;;;;;32.33;21.67;;;;;;;;;;4977175;28;20203;-82
2022/03/08 11:17:45;;;;;;;26.53;18.97;;;;;;;;;;4963675;28;20179;-82
2022/03/08 11:20:12;;;;;;;26.13;20.33;;;;;;;;;;4960962;28;20242;-82
2022/03/08 11:22:38;;;;;;;28.03;20.80;;;;;;;;;;4964380;28;20200;-82
2022/03/08 11:25:08;;;;;;;24.97;19.50;;;;;;;;;;4966281;28;20690;-83
2022/03/08 11:27:36;;;;;;;29.27;21.57;;;;;;;;;;4969446;28;20251;-84
2022/03/08 11:30:03;;;;;;;26.87;21.27;;;;;;;;;;4978693;28;20207;-81
2022/03/08 11:32:38;;;;;;;32.67;22.53;;;;;;;;;;4983318;28;20200;-82
2022/03/08 11:35:08;;;;;;;29.17;22.33;;;;;;;;;;4982767;28;20207;-82
2022/03/08 11:37:36;;;;;;;37.33;23.07;;;;;;;;;;4964459;28;20648;-83
2022/03/08 11:40:12;;;;;;;28.67;21.87;;;;;;;;;;4969479;28;20269;-82
2022/03/08 11:42:44;;;;;;;31.03;23.10;;;;;;;;;;4982362;28;20191;-83
2022/03/08 11:45:13;;;;;;;28.60;21.73;;;;;;;;;;4983093;28;20204;-83
2022/03/08 11:47:43;;;;;;;28.80;22.30;;;;;;;;;;4982949;28;20213;-83
2022/03/08 11:50:18;;;;;;;33.97;22.87;;;;;;;;;;4982656;28;20679;-83
2022/03/08 11:52:44;;;;;;;31.80;25.80;;;;;;;;;;4977061;28;20196;-82
2022/03/08 11:55:11;;;;;;;31.67;22.23;;;;;;;;;;4981909;28;20211;-82
2022/03/08 11:57:49;;;;;;;29.53;21.93;;;;;;;;;;4971161;28;20181;-81
2022/03/08 12:00:27;;;;;;;28.93;21.63;;;;;;;;;;4962713;28;20207;-82
2022/03/08 12:02:54;;;;;;;27.13;21.63;;;;;;;;;;4960774;28;20175;-81
2022/03/08 12:05:41;;;;;;;30.13;22.13;;;;;;;;;;4962048;28;20212;-82
2022/03/08 12:08:23;;;;;;;29.87;22.37;;;;;;;;;;4945461;28;20252;-82
2022/03/08 12:10:50;;;;;;;31.10;22.33;;;;;;;;;;4978215;28;20565;-81
2022/03/08 12:13:16;;;;;;;30.20;22.90;;;;;;;;;;4976103;28;20178;-82
2022/03/08 12:16:00;;;;;;;40.40;22.57;;;;;;;;;;4962627;28;20285;-83
2022/03/08 12:18:41;;;;;;;30.97;22.63;;;;;;;;;;4981178;28;20673;-82
2022/03/08 12:21:20;;;;;;;28.17;21.83;;;;;;;;;;4980825;28;20189;-82
2022/03/08 12:24:05;;;;;;;29.23;22.23;;;;;;;;;;4979442;28;20184;-82
2022/03/08 12:26:38;;;;;;;31.73;21.77;;;;;;;;;;4970111;28;20188;-82
2022/03/08 12:29:04;;;;;;;27.83;21.17;;;;;;;;;;4980936;28;20184;-82
2022/03/08 12:31:31;;;;;;;30.13;22.00;;;;;;;;;;4963277;28;20287;-82
2022/03/08 12:34:06;;;;;;;25.33;20.63;;;;;;;;;;4980912;28;20713;-82
2022/03/08 12:36:34;;;;;;;26.57;20.93;;;;;;;;;;4963870;28;20181;-82
2022/03/08 12:39:00;;;;;;;34.33;21.47;;;;;;;;;;4981805;28;20181;-82
2022/03/08 12:41:26;;;;;;;54.77;23.63;;;;;;;;;;4981692;28;20189;-82
2022/03/08 12:44:00;;;;;;;30.93;22.43;;;;;;;;;;4981141;28;20228;-82
2022/03/08 12:46:26;;;;;;;29.93;21.77;;;;;;;;;;4981695;28;20190;-82
2022/03/08 12:49:04;;;;;;;41.13;21.37;;;;;;;;;;4997945;23;20229;-84
2022/03/08 12:51:30;;;;;;;30.47;20.47;;;;;;;;;;4966150;28;20664;-84
2022/03/08 12:54:28;;;;;;;39.17;27.37;;;;;;;;;;4962608;28;20204;-84
2022/03/08 12:57:22;;;;;;;28.30;21.17;;;;;;;;;;4983660;28;20184;-87
2022/03/08 13:03:44;;;;;;;;;;;;;;;;;;;;;
2022/03/08 13:06:38;;;;;;;;;;;;;;;;;;;;;
2022/03/08 13:09:16;;;;;;;54.53;21.70;;;;;;;;;;4960906;28;20345;-85
2022/03/08 13:15:11;;;;;;;31.77;20.90;;;;;;;;;;4905008;29;20197;-85
2022/03/08 13:18:00;;;;;;;27.80;20.60;;;;;;;;;;4964184;28;20205;-85
2022/03/08 13:20:59;;;;;;;25.53;18.77;;;;;;;;;;4961639;28;20201;-84
2022/03/08 13:23:49;;;;;;;22.43;18.27;;;;;;;;;;4956189;28;20223;-84
2022/03/08 13:29:27;;;;;;;26.30;20.70;;;;;;;;;;4885773;29;20203;-85
2022/03/08 13:35:15;;;;;;;21.07;17.97;;;;;;;;;;4920169;28;20292;-84
2022/03/08 13:38:02;;;;;;;31.93;22.27;;;;;;;;;;4937781;29;20214;-84
2022/03/08 13:41:08;;;;;;;;;;;;;;;;;;;;;
2022/03/08 13:44:25;;;;;;;25.07;18.93;;;;;;;;;;4902840;29;20286;-84
2022/03/08 13:53:01;;;;;;;22.90;18.13;;;;;;;;;;4921903;29;20300;-84
2022/03/08 13:55:37;;;;;;;25.17;18.37;;;;;;;;;;4921649;29;20192;-84
2022/03/08 13:58:10;;;;;;;25.87;17.50;;;;;;;;;;4912714;29;20210;-83
2022/03/08 14:00:39;;;;;;;23.20;17.87;;;;;;;;;;4904370;29;20181;-84
2022/03/08 14:03:13;;;;;;;21.50;18.43;;;;;;;;;;4919517;28;20226;-84
2022/03/08 14:05:57;;;;;;;30.90;21.43;;;;;;;;;;4965216;28;20669;-85
2022/03/08 14:08:42;;;;;;;78.93;23.17;;;;;;;;;;4966210;28;20261;-83
2022/03/08 14:14:55;;;;;;;27.30;16.67;;;;;;;;;;4877560;29;20187;-83
2022/03/08 14:17:47;;;;;;;19.20;14.77;;;;;;;;;;4956019;28;20269;-83
2022/03/08 14:20:45;;;;;;;15.47;13.73;;;;;;;;;;4973550;28;20189;-85
2022/03/08 14:26:38;;;;;;;20.70;17.13;;;;;;;;;;4880937;29;20198;-84
2022/03/08 14:29:16;;;;;;;35.17;20.30;;;;;;;;;;4886069;29;20210;-84
2022/03/08 14:31:57;;;;;;;90.27;33.97;;;;;;;;;;4884981;29;20219;-84
2022/03/08 14:51:34;;;;;;;19.63;15.60;;;;;;;;;;6179771;22;1342381;-86
2022/03/08 14:54:27;;;;;;;15.53;13.93;;;;;;;;;;6201910;23;20599;-83
2022/03/08 15:00:44;;;;;;;;;;;;;;;;;;;;;
2022/03/08 15:06:20;;;;;;;18.33;13.47;;;;;;;;;;6173338;23;20148;-85
2022/03/08 15:09:35;;;;;;;16.07;13.80;;;;;;;;;;6173606;23;20171;-85
2022/03/08 15:12:13;;;;;;;16.57;12.17;;;;;;;;;;6081346;23;20161;-86
2022/03/08 15:14:40;;;;;;;55.87;27.40;;;;;;;;;;6171786;23;20154;-85
2022/03/08 15:17:19;;;;;;;14.70;13.20;;;;;;;;;;6175419;23;20175;-84
2022/03/08 15:22:51;;;;;;;19.83;13.90;;;;;;;;;;6128230;23;20166;-85